Time,TemperatureF,DewpointF,PressureIn,WindDirection,WindDirectionDegrees,WindSpeedMPH,WindSpeedGustMPH,Humidity,HourlyPrecipIn,Conditions,Clouds,dailyrainin,SoftwareType,DateUTC
2013-02-19 00:00:00,51.0,41.0,30.28,East,90,9.0,10.0,68,-99.99,,,-99.99,,2013-02-19 05:00:00,
2013-02-19 00:22:00,51.0,41.0,30.28,East,90,9.0,10.0,68,-99.99,,,-99.99,,2013-02-19 05:22:00,
2013-02-19 00:31:00,51.0,41.0,30.28,East,90,9.0,10.0,68,-99.99,,,-99.99,,2013-02-19 05:31:00,
2013-02-19 00:42:00,51.0,41.0,30.28,East,90,9.0,10.0,68,-99.99,,,-99.99,,2013-02-19 05:42:00,
2013-02-19 00:52:00,51.0,41.0,30.28,East,90,9.0,10.0,68,-99.99,,,-99.99,,2013-02-19 05:52:00,
2013-02-19 01:00:00,52.0,44.0,30.27,East,80,6.0,7.0,73,-99.99,,,-99.99,,2013-02-19 06:00:00,
2013-02-19 01:21:00,52.0,44.0,30.27,East,80,6.0,7.0,73,-99.99,,,-99.99,,2013-02-19 06:21:00,
2013-02-19 01:32:00,52.0,44.0,30.27,East,80,6.0,7.0,73,-99.99,,,-99.99,,2013-02-19 06:32:00,
2013-02-19 01:41:00,52.0,44.0,30.27,East,80,6.0,7.0,73,-99.99,,,-99.99,,2013-02-19 06:41:00,
2013-02-19 01:51:00,52.0,44.0,30.27,East,80,6.0,7.0,73,-99.99,,,-99.99,,2013-02-19 06:51:00,
2013-02-19 02:00:00,52.0,47.0,30.26,NW,310,2.0,3.0,81,-99.99,,,-99.99,,2013-02-19 07:00:00,
2013-02-19 02:21:00,52.0,47.0,30.26,NW,310,2.0,3.0,81,-99.99,,,-99.99,,2013-02-19 07:21:00,
2013-02-19 02:31:00,52.0,47.0,30.26,NW,310,2.0,3.0,81,-99.99,,,-99.99,,2013-02-19 07:31:00,
2013-02-19 02:41:00,52.0,47.0,30.26,NW,310,2.0,3.0,81,-99.99,,,-99.99,,2013-02-19 07:41:00,
2013-02-19 02:51:00,52.0,47.0,30.26,NW,310,2.0,3.0,81,-99.99,,,-99.99,,2013-02-19 07:51:00,
2013-02-19 03:00:00,50.0,47.0,30.22,NNE,30,5.0,5.0,89,-99.99,,,-99.99,,2013-02-19 08:00:00,
2013-02-19 03:21:00,50.0,47.0,30.22,NNE,30,5.0,5.0,89,-99.99,,,-99.99,,2013-02-19 08:21:00,
2013-02-19 03:31:00,50.0,47.0,30.22,NNE,30,5.0,5.0,89,-99.99,,,-99.99,,2013-02-19 08:31:00,
2013-02-19 03:41:00,50.0,47.0,30.22,NNE,30,5.0,5.0,89,-99.99,,,-99.99,,2013-02-19 08:41:00,
2013-02-19 03:52:00,50.0,47.0,30.22,NNE,30,5.0,5.0,89,-99.99,,,-99.99,,2013-02-19 08:52:00,
2013-02-19 04:00:00,51.0,49.0,30.19,ENE,60,5.0,6.0,92,-99.99,,,-99.99,,2013-02-19 09:00:00,
2013-02-19 04:21:00,51.0,49.0,30.19,ENE,60,5.0,6.0,92,-99.99,,,-99.99,,2013-02-19 09:21:00,
2013-02-19 04:31:00,51.0,49.0,30.19,ENE,60,5.0,6.0,92,-99.99,,,-99.99,,2013-02-19 09:31:00,
2013-02-19 04:41:00,51.0,49.0,30.19,ENE,60,5.0,6.0,92,-99.99,,,-99.99,,2013-02-19 09:41:00,
2013-02-19 04:52:00,51.0,49.0,30.19,ENE,60,5.0,6.0,92,-99.99,,,-99.99,,2013-02-19 09:52:00,
2013-02-19 05:00:00,53.0,50.0,30.17,ENE,70,5.0,6.0,92,-99.99,,,-99.99,,2013-02-19 10:00:00,
2013-02-19 05:21:00,53.0,50.0,30.17,ENE,70,5.0,6.0,92,-99.99,,,-99.99,,2013-02-19 10:21:00,
2013-02-19 05:31:00,53.0,50.0,30.17,ENE,70,5.0,6.0,92,-99.99,,,-99.99,,2013-02-19 10:31:00,
2013-02-19 05:41:00,53.0,50.0,30.17,ENE,70,5.0,6.0,92,-99.99,,,-99.99,,2013-02-19 10:41:00,
2013-02-19 05:51:00,53.0,50.0,30.17,ENE,70,5.0,6.0,92,-99.99,,,-99.99,,2013-02-19 10:51:00,
2013-02-19 06:00:00,54.0,50.0,30.16,SSE,150,6.0,6.0,85,-99.99,,,-99.99,,2013-02-19 11:00:00,
2013-02-19 06:21:00,54.0,50.0,30.16,SSE,150,6.0,6.0,85,-99.99,,,-99.99,,2013-02-19 11:21:00,
2013-02-19 06:31:00,54.0,50.0,30.16,SSE,150,6.0,6.0,85,-99.99,,,-99.99,,2013-02-19 11:31:00,
2013-02-19 06:41:00,54.0,50.0,30.16,SSE,150,6.0,6.0,85,-99.99,,,-99.99,,2013-02-19 11:41:00,
2013-02-19 06:51:00,54.0,50.0,30.16,SSE,150,6.0,6.0,85,-99.99,,,-99.99,,2013-02-19 11:51:00,
2013-02-19 07:00:00,54.0,51.0,30.15,SSE,160,6.0,6.0,89,-99.99,,,-99.99,,2013-02-19 12:00:00,
2013-02-19 07:21:00,54.0,51.0,30.15,SSE,160,6.0,6.0,89,-99.99,,,-99.99,,2013-02-19 12:21:00,
2013-02-19 07:32:00,54.0,51.0,30.15,SSE,160,6.0,6.0,89,-99.99,,,-99.99,,2013-02-19 12:32:00,
2013-02-19 07:41:00,54.0,51.0,30.15,SSE,160,6.0,6.0,89,-99.99,,,-99.99,,2013-02-19 12:41:00,
2013-02-19 07:52:00,54.0,51.0,30.15,SSE,160,6.0,6.0,89,-99.99,,,-99.99,,2013-02-19 12:52:00,
2013-02-19 08:00:00,56.0,53.0,30.16,SSW,200,8.0,9.0,87,-99.99,,,-99.99,,2013-02-19 13:00:00,
2013-02-19 08:21:00,56.0,53.0,30.16,SSW,200,8.0,9.0,87,-99.99,,,-99.99,,2013-02-19 13:21:00,
2013-02-19 08:31:00,56.0,53.0,30.16,SSW,200,8.0,9.0,87,-99.99,,,-99.99,,2013-02-19 13:31:00,
2013-02-19 08:41:00,56.0,53.0,30.16,SSW,200,8.0,9.0,87,-99.99,,,-99.99,,2013-02-19 13:41:00,
2013-02-19 08:52:00,56.0,53.0,30.16,SSW,200,8.0,9.0,87,-99.99,,,-99.99,,2013-02-19 13:52:00,
2013-02-19 09:00:00,58.0,53.0,30.16,SW,220,10.0,13.0,84,-99.99,,,-99.99,,2013-02-19 14:00:00,
2013-02-19 09:21:00,58.0,53.0,30.16,SW,220,10.0,13.0,84,-99.99,,,-99.99,,2013-02-19 14:21:00,
2013-02-19 09:32:00,58.0,53.0,30.16,SW,220,10.0,13.0,84,-99.99,,,-99.99,,2013-02-19 14:32:00,
2013-02-19 09:41:00,58.0,53.0,30.16,SW,220,10.0,13.0,84,-99.99,,,-99.99,,2013-02-19 14:41:00,
2013-02-19 09:52:00,58.0,53.0,30.16,SW,220,10.0,13.0,84,-99.99,,,-99.99,,2013-02-19 14:52:00,
2013-02-19 10:00:00,59.0,52.0,30.16,SW,220,13.0,17.0,76,-99.99,,,-99.99,,2013-02-19 15:00:00,
2013-02-19 10:21:00,59.0,52.0,30.16,SW,220,13.0,17.0,76,-99.99,,,-99.99,,2013-02-19 15:21:00,
2013-02-19 10:31:00,59.0,52.0,30.16,SW,220,13.0,17.0,76,-99.99,,,-99.99,,2013-02-19 15:31:00,
2013-02-19 10:41:00,59.0,52.0,30.16,SW,220,13.0,17.0,76,-99.99,,,-99.99,,2013-02-19 15:41:00,
2013-02-19 10:52:00,59.0,52.0,30.16,SW,220,13.0,17.0,76,-99.99,,,-99.99,,2013-02-19 15:52:00,
2013-02-19 11:00:00,58.0,53.0,30.13,SSW,200,11.0,13.0,84,-99.99,,,-99.99,,2013-02-19 16:00:00,
2013-02-19 11:21:00,58.0,53.0,30.13,SSW,200,11.0,13.0,84,-99.99,,,-99.99,,2013-02-19 16:21:00,
2013-02-19 11:31:00,58.0,53.0,30.13,SSW,200,11.0,13.0,84,-99.99,,,-99.99,,2013-02-19 16:31:00,
2013-02-19 11:41:00,58.0,53.0,30.13,SSW,200,11.0,13.0,84,-99.99,,,-99.99,,2013-02-19 16:41:00,
2013-02-19 11:51:00,58.0,53.0,30.13,SSW,200,11.0,13.0,84,-99.99,,,-99.99,,2013-02-19 16:51:00,
2013-02-19 12:00:00,58.0,52.0,30.12,SW,220,11.0,13.0,82,-99.99,,,-99.99,,2013-02-19 17:00:00,
2013-02-19 12:21:00,58.0,52.0,30.12,SW,220,11.0,13.0,82,-99.99,,,-99.99,,2013-02-19 17:21:00,
2013-02-19 12:31:00,58.0,52.0,30.12,SW,220,11.0,13.0,82,-99.99,,,-99.99,,2013-02-19 17:31:00,
2013-02-19 12:41:00,58.0,52.0,30.12,SW,220,11.0,13.0,82,-99.99,,,-99.99,,2013-02-19 17:41:00,
2013-02-19 12:51:00,58.0,52.0,30.12,SW,220,11.0,13.0,82,-99.99,,,-99.99,,2013-02-19 17:51:00,
2013-02-19 13:00:00,57.0,53.0,30.08,SSW,210,15.0,16.0,85,-99.99,,,-99.99,,2013-02-19 18:00:00,
2013-02-19 13:21:00,57.0,53.0,30.08,SSW,210,15.0,16.0,85,-99.99,,,-99.99,,2013-02-19 18:21:00,
2013-02-19 13:31:00,57.0,53.0,30.08,SSW,210,15.0,16.0,85,-99.99,,,-99.99,,2013-02-19 18:31:00,
2013-02-19 13:41:00,57.0,53.0,30.08,SSW,210,15.0,16.0,85,-99.99,,,-99.99,,2013-02-19 18:41:00,
2013-02-19 13:51:00,57.0,53.0,30.08,SSW,210,15.0,16.0,85,-99.99,,,-99.99,,2013-02-19 18:51:00,
2013-02-19 14:00:00,57.0,54.0,30.05,SSW,210,16.0,17.0,92,-99.99,,,-99.99,,2013-02-19 19:00:00,
2013-02-19 14:21:00,57.0,54.0,30.05,SSW,210,16.0,17.0,92,-99.99,,,-99.99,,2013-02-19 19:21:00,
2013-02-19 14:31:00,57.0,54.0,30.05,SSW,210,16.0,17.0,92,-99.99,,,-99.99,,2013-02-19 19:31:00,
2013-02-19 14:41:00,57.0,54.0,30.05,SSW,210,16.0,17.0,92,-99.99,,,-99.99,,2013-02-19 19:41:00,
2013-02-19 14:51:00,57.0,54.0,30.05,SSW,210,16.0,17.0,92,-99.99,,,-99.99,,2013-02-19 19:51:00,
2013-02-19 15:00:00,57.0,55.0,30.01,SSW,210,15.0,17.0,93,-99.99,,,-99.99,,2013-02-19 20:00:00,
2013-02-19 15:21:00,57.0,55.0,30.01,SSW,210,15.0,17.0,93,-99.99,,,-99.99,,2013-02-19 20:21:00,
2013-02-19 15:31:00,57.0,55.0,30.01,SSW,210,15.0,17.0,93,-99.99,,,-99.99,,2013-02-19 20:31:00,
2013-02-19 15:41:00,57.0,55.0,30.01,SSW,210,15.0,17.0,93,-99.99,,,-99.99,,2013-02-19 20:41:00,
2013-02-19 15:52:00,57.0,55.0,30.01,SSW,210,15.0,17.0,93,-99.99,,,-99.99,,2013-02-19 20:52:00,
2013-02-19 16:00:00,57.0,57.0,30.01,SW,230,14.0,17.0,99,-99.99,,,-99.99,,2013-02-19 21:00:00,
2013-02-19 16:21:00,57.0,57.0,30.01,SW,230,14.0,17.0,99,-99.99,,,-99.99,,2013-02-19 21:21:00,
2013-02-19 16:31:00,57.0,57.0,30.01,SW,230,14.0,17.0,99,-99.99,,,-99.99,,2013-02-19 21:31:00,
2013-02-19 16:42:00,57.0,57.0,30.01,SW,230,14.0,17.0,99,-99.99,,,-99.99,,2013-02-19 21:42:00,
2013-02-19 16:51:00,57.0,57.0,30.01,SW,230,14.0,17.0,99,-99.99,,,-99.99,,2013-02-19 21:51:00,
2013-02-19 17:00:00,57.0,57.0,30.01,West,260,6.0,8.0,100,-99.99,,,-99.99,,2013-02-19 22:00:00,
2013-02-19 17:31:00,57.0,57.0,30.01,West,260,6.0,8.0,100,-99.99,,,-99.99,,2013-02-19 22:31:00,
2013-02-19 17:41:00,57.0,57.0,30.01,West,260,6.0,8.0,100,-99.99,,,-99.99,,2013-02-19 22:41:00,
2013-02-19 17:51:00,57.0,57.0,30.01,West,260,6.0,8.0,100,-99.99,,,-99.99,,2013-02-19 22:51:00,
2013-02-19 18:00:00,57.0,57.0,30.02,West,260,6.0,9.0,99,-99.99,,,-99.99,,2013-02-19 23:00:00,
2013-02-19 18:21:00,57.0,57.0,30.02,West,260,6.0,9.0,99,-99.99,,,-99.99,,2013-02-19 23:21:00,
2013-02-19 18:31:00,57.0,57.0,30.02,West,260,6.0,9.0,99,-99.99,,,-99.99,,2013-02-19 23:31:00,
2013-02-19 18:41:00,57.0,57.0,30.02,West,260,6.0,9.0,99,-99.99,,,-99.99,,2013-02-19 23:41:00,
2013-02-19 18:51:00,57.0,57.0,30.02,West,260,6.0,9.0,99,-99.99,,,-99.99,,2013-02-19 23:51:00,
2013-02-19 19:00:00,56.0,56.0,30.03,WSW,240,8.0,10.0,100,-99.99,,,-99.99,,2013-02-20 00:00:00,
2013-02-19 19:21:00,56.0,56.0,30.03,WSW,240,8.0,10.0,100,-99.99,,,-99.99,,2013-02-20 00:21:00,
2013-02-19 19:31:00,56.0,56.0,30.03,WSW,240,8.0,10.0,100,-99.99,,,-99.99,,2013-02-20 00:31:00,
2013-02-19 19:41:00,56.0,56.0,30.03,WSW,240,8.0,10.0,100,-99.99,,,-99.99,,2013-02-20 00:41:00,
2013-02-19 19:51:00,56.0,56.0,30.03,WSW,240,8.0,10.0,100,-99.99,,,-99.99,,2013-02-20 00:51:00,
2013-02-19 20:00:00,56.0,56.0,30.04,West,260,7.0,9.0,100,-99.99,,,-99.99,,2013-02-20 01:00:00,
2013-02-19 20:21:00,56.0,56.0,30.04,West,260,7.0,9.0,100,-99.99,,,-99.99,,2013-02-20 01:21:00,
2013-02-19 20:31:00,56.0,56.0,30.04,West,260,7.0,9.0,100,-99.99,,,-99.99,,2013-02-20 01:31:00,
2013-02-19 20:41:00,56.0,56.0,30.04,West,260,7.0,9.0,100,-99.99,,,-99.99,,2013-02-20 01:41:00,
2013-02-19 20:51:00,56.0,56.0,30.04,West,260,7.0,9.0,100,-99.99,,,-99.99,,2013-02-20 01:51:00,
2013-02-19 21:00:00,54.0,54.0,30.05,West,260,5.0,8.0,99,-99.99,,,-99.99,,2013-02-20 02:00:00,
2013-02-19 21:21:00,54.0,54.0,30.05,West,260,5.0,8.0,99,-99.99,,,-99.99,,2013-02-20 02:21:00,
2013-02-19 21:31:00,54.0,54.0,30.05,West,260,5.0,8.0,99,-99.99,,,-99.99,,2013-02-20 02:31:00,
2013-02-19 21:41:00,54.0,54.0,30.05,West,260,5.0,8.0,99,-99.99,,,-99.99,,2013-02-20 02:41:00,
2013-02-19 21:52:00,54.0,54.0,30.05,West,260,5.0,8.0,99,-99.99,,,-99.99,,2013-02-20 02:52:00,
2013-02-19 22:00:00,52.0,52.0,30.06,WSW,240,5.0,6.0,99,-99.99,,,-99.99,,2013-02-20 03:00:00,
2013-02-19 22:21:00,52.0,52.0,30.06,WSW,240,5.0,6.0,99,-99.99,,,-99.99,,2013-02-20 03:21:00,
2013-02-19 22:31:00,52.0,52.0,30.06,WSW,240,5.0,6.0,99,-99.99,,,-99.99,,2013-02-20 03:31:00,
2013-02-19 22:41:00,52.0,52.0,30.06,WSW,240,5.0,6.0,99,-99.99,,,-99.99,,2013-02-20 03:41:00,
2013-02-19 22:51:00,52.0,52.0,30.06,WSW,240,5.0,6.0,99,-99.99,,,-99.99,,2013-02-20 03:51:00,
2013-02-19 23:00:00,51.0,51.0,30.06,WSW,240,6.0,7.0,100,-99.99,,,-99.99,,2013-02-20 04:00:00,
2013-02-19 23:21:00,51.0,51.0,30.06,WSW,240,6.0,7.0,100,-99.99,,,-99.99,,2013-02-20 04:21:00,
2013-02-19 23:31:00,51.0,51.0,30.06,WSW,240,6.0,7.0,100,-99.99,,,-99.99,,2013-02-20 04:31:00,
2013-02-19 23:41:00,51.0,51.0,30.06,WSW,240,6.0,7.0,100,-99.99,,,-99.99,,2013-02-20 04:41:00,
2013-02-19 23:51:00,51.0,51.0,30.06,WSW,240,6.0,7.0,100,-99.99,,,-99.99,,2013-02-20 04:51:00,